Time;durP1;ratioP1;P1;durP2;ratioP2;P2;SDS_P1;SDS_P2;PMS_P1;PMS_P2;Temp;Humidity;BMP_temperature;BMP_pressure;BME280_temperature;BME280_humidity;BME280_pressure;Samples;Min_cycle;Max_cycle;Signal;HPM_P1;HPM_P2
2021/05/21 00:02:30;;;;;;;1.52;0.77;;;;;;;;;;6269674;28;20134;-72
2021/05/21 00:05:32;;;;;;;1.80;0.55;;;;;;;;;;6268937;28;20556;-72
2021/05/21 00:08:33;;;;;;;3.35;0.90;;;;;;;;;;6270000;28;20049;-72
2021/05/21 00:11:35;;;;;;;2.22;0.60;;;;;;;;;;6269932;28;20045;-72
2021/05/21 00:14:36;;;;;;;1.77;0.63;;;;;;;;;;6275080;28;20083;-72
2021/05/21 00:17:37;;;;;;;1.85;0.60;;;;;;;;;;6273962;28;20060;-72
2021/05/21 00:20:39;;;;;;;2.35;0.77;;;;;;;;;;6273914;28;20088;-72
2021/05/21 00:23:40;;;;;;;2.45;0.60;;;;;;;;;;6269613;28;20936;-71
2021/05/21 00:26:42;;;;;;;1.02;0.52;;;;;;;;;;6271020;28;20621;-72
2021/05/21 00:29:43;;;;;;;2.92;0.80;;;;;;;;;;6267528;28;20095;-71
2021/05/21 00:32:44;;;;;;;1.10;0.60;;;;;;;;;;6267259;28;20928;-72
2021/05/21 00:35:47;;;;;;;2.15;0.60;;;;;;;;;;6268805;28;20072;-71
2021/05/21 00:38:49;;;;;;;1.98;0.63;;;;;;;;;;6268903;28;20061;-72
2021/05/21 00:41:59;;;;;;;2.78;0.63;;;;;;;;;;6263076;28;20071;-72
2021/05/21 00:45:05;;;;;;;2.42;0.70;;;;;;;;;;6267325;28;20047;-72
2021/05/21 00:48:07;;;;;;;2.03;0.57;;;;;;;;;;6265578;28;20080;-71
2021/05/21 00:51:10;;;;;;;1.73;0.70;;;;;;;;;;6266972;28;20053;-71
2021/05/21 00:54:27;;;;;;;1.55;0.90;;;;;;;;;;6269137;28;20056;-73
2021/05/21 00:57:28;;;;;;;1.75;0.68;;;;;;;;;;6261332;28;20836;-72
2021/05/21 01:00:30;;;;;;;2.80;0.70;;;;;;;;;;6267487;28;20504;-72
2021/05/21 01:03:31;;;;;;;0.80;0.45;;;;;;;;;;6291465;22;20040;-65
2021/05/21 01:06:33;;;;;;;2.75;0.82;;;;;;;;;;6292168;28;20125;-67
2021/05/21 01:09:35;;;;;;;2.20;0.80;;;;;;;;;;6292460;28;20113;-67
2021/05/21 01:12:36;;;;;;;3.80;0.63;;;;;;;;;;6293988;28;20123;-64
2021/05/21 01:15:37;;;;;;;2.85;1.00;;;;;;;;;;6295580;28;20131;-64
2021/05/21 01:18:38;;;;;;;3.25;0.52;;;;;;;;;;6286455;28;20155;-68
2021/05/21 01:21:40;;;;;;;4.10;0.93;;;;;;;;;;6296050;28;20598;-66
2021/05/21 01:24:41;;;;;;;3.55;0.85;;;;;;;;;;6289889;28;20147;-65
2021/05/21 01:27:42;;;;;;;4.78;1.00;;;;;;;;;;6274894;28;20052;-64
2021/05/21 01:30:44;;;;;;;3.83;0.98;;;;;;;;;;6269490;28;20128;-65
2021/05/21 01:33:45;;;;;;;3.28;0.88;;;;;;;;;;6278817;28;20049;-65
2021/05/21 01:36:47;;;;;;;2.28;0.73;;;;;;;;;;6262622;28;20127;-66
2021/05/21 01:39:50;;;;;;;4.10;0.70;;;;;;;;;;6259882;28;20067;-66
2021/05/21 01:42:51;;;;;;;4.50;0.70;;;;;;;;;;6260765;28;20132;-66
2021/05/21 01:45:52;;;;;;;2.22;1.05;;;;;;;;;;6259327;28;20048;-67
2021/05/21 01:48:54;;;;;;;5.90;1.33;;;;;;;;;;6277047;28;20049;-68
2021/05/21 01:51:58;;;;;;;4.82;1.27;;;;;;;;;;6287424;28;20048;-68
2021/05/21 01:55:00;;;;;;;3.03;0.80;;;;;;;;;;6281415;28;20705;-66
2021/05/21 01:58:01;;;;;;;9.18;1.95;;;;;;;;;;6278738;28;20071;-67
2021/05/21 02:01:03;;;;;;;5.38;1.00;;;;;;;;;;6279016;28;20060;-66
2021/05/21 02:04:04;;;;;;;8.55;1.20;;;;;;;;;;6285317;28;20074;-66
2021/05/21 02:07:07;;;;;;;3.55;1.13;;;;;;;;;;6286458;28;20053;-67
2021/05/21 02:10:09;;;;;;;2.13;0.70;;;;;;;;;;6286415;28;20575;-66
2021/05/21 02:13:10;;;;;;;4.03;0.90;;;;;;;;;;6285663;28;20458;-66
2021/05/21 02:16:12;;;;;;;1.42;0.70;;;;;;;;;;6257627;28;20054;-66
2021/05/21 02:19:13;;;;;;;8.05;1.13;;;;;;;;;;6275817;28;20076;-68
2021/05/21 02:22:18;;;;;;;4.38;0.98;;;;;;;;;;6286494;28;20129;-67
2021/05/21 02:25:19;;;;;;;3.22;0.80;;;;;;;;;;6287661;28;20050;-66
2021/05/21 02:28:20;;;;;;;3.80;0.82;;;;;;;;;;6287758;28;20040;-67
2021/05/21 02:31:22;;;;;;;1.33;0.60;;;;;;;;;;6286713;28;20139;-66
2021/05/21 02:34:23;;;;;;;1.67;0.88;;;;;;;;;;6274058;28;20079;-67
2021/05/21 02:37:25;;;;;;;2.85;0.85;;;;;;;;;;6259778;28;20061;-67
2021/05/21 02:40:26;;;;;;;4.72;0.63;;;;;;;;;;6259973;28;20047;-68
2021/05/21 02:43:27;;;;;;;3.58;0.70;;;;;;;;;;6282146;28;20552;-68
2021/05/21 02:46:28;;;;;;;2.13;0.68;;;;;;;;;;6267715;28;20051;-67
2021/05/21 02:49:31;;;;;;;4.00;0.70;;;;;;;;;;6277438;28;20053;-67
2021/05/21 02:52:33;;;;;;;2.58;0.80;;;;;;;;;;6270785;28;20049;-66
2021/05/21 02:55:34;;;;;;;1.38;0.60;;;;;;;;;;6284460;28;20045;-67
2021/05/21 02:58:35;;;;;;;1.52;0.98;;;;;;;;;;6267374;28;20700;-66
2021/05/21 03:01:37;;;;;;;2.53;0.70;;;;;;;;;;6268778;28;20443;-67
2021/05/21 03:04:38;;;;;;;4.18;1.00;;;;;;;;;;6286000;28;20515;-67
2021/05/21 03:07:40;;;;;;;2.72;0.90;;;;;;;;;;6278752;28;20093;-66
2021/05/21 03:10:41;;;;;;;2.08;0.80;;;;;;;;;;6296768;28;20143;-68
2021/05/21 03:13:42;;;;;;;1.30;0.63;;;;;;;;;;6296744;28;20127;-66
2021/05/21 03:16:43;;;;;;;5.82;1.55;;;;;;;;;;6301845;28;20119;-67
2021/05/21 03:19:46;;;;;;;1.70;0.80;;;;;;;;;;6297879;28;20157;-66
2021/05/21 03:22:48;;;;;;;4.30;1.05;;;;;;;;;;6295003;28;21489;-66
2021/05/21 03:25:49;;;;;;;2.85;1.10;;;;;;;;;;6294370;28;20045;-66
2021/05/21 03:28:50;;;;;;;3.05;0.85;;;;;;;;;;6295475;28;20057;-68
2021/05/21 03:31:51;;;;;;;3.47;1.13;;;;;;;;;;6304882;28;20052;-66
2021/05/21 03:34:53;;;;;;;1.85;1.10;;;;;;;;;;6299233;28;20049;-67
2021/05/21 03:37:55;;;;;;;5.38;1.38;;;;;;;;;;6282369;28;20135;-67
2021/05/21 03:40:56;;;;;;;3.20;0.90;;;;;;;;;;6295656;28;20052;-67
2021/05/21 03:43:57;;;;;;;2.00;1.20;;;;;;;;;;6270620;28;20120;-67
2021/05/21 03:47:01;;;;;;;6.05;1.23;;;;;;;;;;6286068;28;20052;-67
2021/05/21 03:50:03;;;;;;;6.22;1.25;;;;;;;;;;6298214;28;20052;-66
2021/05/21 03:53:05;;;;;;;6.28;1.55;;;;;;;;;;6297825;28;20515;-67
2021/05/21 03:56:06;;;;;;;4.75;1.83;;;;;;;;;;6295548;28;20044;-69
2021/05/21 03:59:07;;;;;;;6.57;1.48;;;;;;;;;;6294747;28;20061;-67
2021/05/21 04:02:08;;;;;;;7.13;1.45;;;;;;;;;;6286703;28;20050;-66
2021/05/21 04:05:10;;;;;;;7.43;1.50;;;;;;;;;;6290811;28;20754;-67
2021/05/21 04:08:12;;;;;;;3.15;1.13;;;;;;;;;;6268317;28;20492;-67
2021/05/21 04:11:13;;;;;;;6.88;1.88;;;;;;;;;;6279827;28;20147;-68
2021/05/21 04:14:14;;;;;;;5.63;1.30;;;;;;;;;;6275763;28;20535;-67
2021/05/21 04:17:15;;;;;;;6.47;1.73;;;;;;;;;;6282749;28;20045;-67
2021/05/21 04:20:16;;;;;;;9.95;1.50;;;;;;;;;;6280748;28;20052;-68
2021/05/21 04:23:18;;;;;;;3.70;1.58;;;;;;;;;;6270758;28;20073;-67
2021/05/21 04:26:19;;;;;;;11.35;1.85;;;;;;;;;;6281005;28;20209;-68
2021/05/21 04:29:20;;;;;;;4.72;1.48;;;;;;;;;;6292725;28;20122;-66
2021/05/21 04:32:22;;;;;;;5.53;1.67;;;;;;;;;;6290465;28;20090;-66
2021/05/21 04:35:23;;;;;;;4.72;1.30;;;;;;;;;;6294499;28;20135;-67
2021/05/21 04:38:25;;;;;;;8.10;1.85;;;;;;;;;;6292779;28;20052;-67
2021/05/21 04:41:26;;;;;;;4.65;1.65;;;;;;;;;;6290081;28;20037;-66
2021/05/21 04:44:27;;;;;;;5.10;1.85;;;;;;;;;;6256298;28;20037;-66
2021/05/21 04:47:28;;;;;;;5.72;1.70;;;;;;;;;;6266246;28;20049;-67
2021/05/21 04:50:29;;;;;;;6.47;1.40;;;;;;;;;;6282205;28;20152;-66
2021/05/21 04:53:31;;;;;;;5.72;1.60;;;;;;;;;;6263914;28;20106;-68
2021/05/21 04:56:32;;;;;;;5.00;1.55;;;;;;;;;;6263063;28;20179;-66
2021/05/21 04:59:33;;;;;;;5.47;1.30;;;;;;;;;;6281717;28;20048;-65
2021/05/21 05:02:35;;;;;;;23.98;3.47;;;;;;;;;;6265766;28;20127;-65
2021/05/21 05:05:36;;;;;;;6.25;1.67;;;;;;;;;;6263697;28;20163;-65
2021/05/21 05:08:38;;;;;;;8.48;2.20;;;;;;;;;;6274771;28;20064;-67
2021/05/21 05:11:41;;;;;;;7.80;1.40;;;;;;;;;;6262757;28;20500;-67
2021/05/21 05:14:42;;;;;;;11.68;1.50;;;;;;;;;;6275763;28;20052;-67
2021/05/21 05:17:43;;;;;;;4.70;1.15;;;;;;;;;;6263292;28;20163;-69
2021/05/21 05:20:45;;;;;;;3.13;1.20;;;;;;;;;;6267963;28;20182;-67
2021/05/21 05:23:47;;;;;;;5.32;1.08;;;;;;;;;;6265232;28;20654;-66
2021/05/21 05:26:49;;;;;;;5.15;1.42;;;;;;;;;;6278368;28;20154;-67
2021/05/21 05:29:50;;;;;;;5.03;1.33;;;;;;;;;;6267842;28;20140;-66
2021/05/21 05:32:51;;;;;;;3.20;1.45;;;;;;;;;;6263235;28;20052;-66
2021/05/21 05:35:52;;;;;;;6.20;1.38;;;;;;;;;;6280075;28;20565;-66
2021/05/21 05:38:54;;;;;;;2.15;1.00;;;;;;;;;;6265843;28;20049;-65
2021/05/21 05:41:55;;;;;;;4.90;1.02;;;;;;;;;;6290218;28;20040;-66
2021/05/21 05:44:56;;;;;;;3.92;0.80;;;;;;;;;;6273692;28;20131;-66
2021/05/21 05:47:57;;;;;;;3.80;1.02;;;;;;;;;;6261992;28;20075;-68
2021/05/21 05:50:58;;;;;;;2.35;1.40;;;;;;;;;;6265341;28;20053;-66
2021/05/21 05:54:00;;;;;;;3.10;1.10;;;;;;;;;;6273883;28;20127;-68
2021/05/21 05:57:01;;;;;;;5.10;1.10;;;;;;;;;;6290140;28;20831;-66
2021/05/21 06:00:04;;;;;;;6.75;0.98;;;;;;;;;;6271869;28;20480;-67
2021/05/21 06:03:06;;;;;;;2.95;0.98;;;;;;;;;;6279211;28;20128;-69
2021/05/21 06:06:07;;;;;;;4.20;0.85;;;;;;;;;;6269824;28;20137;-67
2021/05/21 06:09:09;;;;;;;1.70;1.10;;;;;;;;;;6266531;28;20559;-66
2021/05/21 06:12:11;;;;;;;4.22;1.95;;;;;;;;;;6234168;28;20057;-67
2021/05/21 06:15:13;;;;;;;5.68;1.17;;;;;;;;;;6261204;28;20044;-68
2021/05/21 06:18:14;;;;;;;6.38;1.77;;;;;;;;;;6268069;28;20052;-69
2021/05/21 06:21:15;;;;;;;6.43;1.92;;;;;;;;;;6269837;28;20565;-70
2021/05/21 06:24:18;;;;;;;10.55;2.10;;;;;;;;;;6268627;28;20719;-70
2021/05/21 06:27:23;;;;;;;6.63;1.65;;;;;;;;;;6284952;28;20052;-66
2021/05/21 06:30:24;;;;;;;8.18;1.73;;;;;;;;;;6289035;28;20057;-68
2021/05/21 06:33:26;;;;;;;16.25;1.65;;;;;;;;;;6285464;28;20543;-66
2021/05/21 06:36:27;;;;;;;16.40;1.60;;;;;;;;;;6283415;28;20712;-68
2021/05/21 06:39:29;;;;;;;10.93;1.50;;;;;;;;;;6280869;28;20473;-66
2021/05/21 06:42:30;;;;;;;4.45;1.00;;;;;;;;;;6283570;28;20060;-67
2021/05/21 06:45:31;;;;;;;5.10;1.23;;;;;;;;;;6284159;28;20395;-68
2021/05/21 06:48:32;;;;;;;13.55;2.00;;;;;;;;;;6286721;28;22336;-67
2021/05/21 06:51:33;;;;;;;6.38;1.70;;;;;;;;;;6287500;28;20049;-69
2021/05/21 06:54:36;;;;;;;4.75;1.33;;;;;;;;;;6298343;28;20064;-68
2021/05/21 06:57:37;;;;;;;7.17;1.47;;;;;;;;;;6291047;28;20120;-68
2021/05/21 07:00:41;;;;;;;7.00;1.33;;;;;;;;;;6285764;28;20053;-68
2021/05/21 07:03:42;;;;;;;8.55;1.02;;;;;;;;;;6282842;28;20045;-68
2021/05/21 07:06:44;;;;;;;5.05;1.02;;;;;;;;;;6281330;28;20452;-69
2021/05/21 07:09:45;;;;;;;6.43;1.10;;;;;;;;;;6281574;28;20124;-69
2021/05/21 07:12:46;;;;;;;3.67;1.25;;;;;;;;;;6282765;28;20182;-69
2021/05/21 07:15:48;;;;;;;13.10;1.40;;;;;;;;;;6285158;28;20474;-69
2021/05/21 07:18:49;;;;;;;4.13;1.27;;;;;;;;;;6278608;28;20060;-70
2021/05/21 07:21:50;;;;;;;8.20;1.10;;;;;;;;;;6281089;28;20174;-73
2021/05/21 07:24:52;;;;;;;2.13;1.00;;;;;;;;;;6277324;28;20049;-70
2021/05/21 07:27:53;;;;;;;2.75;1.10;;;;;;;;;;6281063;28;20045;-70
2021/05/21 07:30:54;;;;;;;6.00;1.17;;;;;;;;;;6284670;28;20580;-71
2021/05/21 07:33:55;;;;;;;3.80;1.35;;;;;;;;;;6296834;28;20131;-69
2021/05/21 07:36:56;;;;;;;4.20;1.33;;;;;;;;;;6298493;28;20131;-69
2021/05/21 07:39:58;;;;;;;4.25;1.45;;;;;;;;;;6297051;28;20174;-67
2021/05/21 07:43:00;;;;;;;3.22;1.10;;;;;;;;;;6301241;28;20076;-68
2021/05/21 07:46:01;;;;;;;1.92;1.23;;;;;;;;;;6300377;28;20454;-68
2021/05/21 07:49:02;;;;;;;3.72;1.27;;;;;;;;;;6300865;28;20054;-67
2021/05/21 07:52:04;;;;;;;3.97;1.40;;;;;;;;;;6300713;28;20131;-67
2021/05/21 07:55:08;;;;;;;5.53;1.40;;;;;;;;;;6298966;28;20076;-67
2021/05/21 07:58:10;;;;;;;4.00;1.55;;;;;;;;;;6292946;28;20747;-68
2021/05/21 08:01:11;;;;;;;6.37;1.30;;;;;;;;;;6290539;28;20877;-68
2021/05/21 08:04:13;;;;;;;4.85;1.42;;;;;;;;;;6298866;28;20386;-66
2021/05/21 08:07:14;;;;;;;3.38;1.40;;;;;;;;;;6296211;28;20064;-68
2021/05/21 08:10:16;;;;;;;5.32;1.65;;;;;;;;;;6286958;28;20136;-71
2021/05/21 08:13:17;;;;;;;8.30;1.50;;;;;;;;;;6296941;28;20178;-68
2021/05/21 08:16:18;;;;;;;7.40;1.90;;;;;;;;;;6300430;28;20608;-69
2021/05/21 08:19:19;;;;;;;3.42;1.65;;;;;;;;;;6292547;28;20052;-68
2021/05/21 08:22:20;;;;;;;3.50;1.70;;;;;;;;;;6294249;28;20124;-66
2021/05/21 08:25:22;;;;;;;6.07;2.10;;;;;;;;;;6291741;28;20658;-67
2021/05/21 08:28:25;;;;;;;4.07;1.95;;;;;;;;;;6299312;28;20102;-65
2021/05/21 08:31:27;;;;;;;6.03;1.90;;;;;;;;;;6300213;28;20131;-66
2021/05/21 08:34:28;;;;;;;4.75;2.17;;;;;;;;;;6296679;28;20131;-66
2021/05/21 08:37:29;;;;;;;3.90;1.70;;;;;;;;;;6300377;28;20049;-67
2021/05/21 08:40:36;;;;;;;2.58;1.80;;;;;;;;;;6301593;28;20040;-68
2021/05/21 08:43:41;;;;;;;2.47;1.45;;;;;;;;;;6298766;28;20856;-67
2021/05/21 08:46:42;;;;;;;2.10;1.38;;;;;;;;;;6296924;28;20047;-67
2021/05/21 08:49:43;;;;;;;4.80;1.45;;;;;;;;;;6289347;28;20063;-68
2021/05/21 08:52:46;;;;;;;2.90;1.40;;;;;;;;;;6283069;28;20054;-67
2021/05/21 08:55:48;;;;;;;5.90;1.58;;;;;;;;;;6275522;28;20075;-68
2021/05/21 08:58:50;;;;;;;7.85;1.60;;;;;;;;;;6299846;28;20128;-67
2021/05/21 09:01:53;;;;;;;2.77;1.70;;;;;;;;;;6282361;28;20041;-67
2021/05/21 09:04:56;;;;;;;2.10;1.25;;;;;;;;;;6265950;28;20053;-67
2021/05/21 09:07:57;;;;;;;6.57;1.83;;;;;;;;;;6257310;28;20063;-69
2021/05/21 09:10:59;;;;;;;3.67;1.80;;;;;;;;;;6257554;28;20755;-65
2021/05/21 09:14:03;;;;;;;4.00;1.55;;;;;;;;;;6253472;28;20140;-68
2021/05/21 09:17:04;;;;;;;3.38;1.30;;;;;;;;;;6254697;28;20082;-69
2021/05/21 09:20:07;;;;;;;2.15;1.40;;;;;;;;;;6255511;28;20045;-68
2021/05/21 09:23:09;;;;;;;11.68;2.22;;;;;;;;;;6254934;28;20485;-68
2021/05/21 09:26:11;;;;;;;2.55;1.55;;;;;;;;;;6258264;28;20119;-69
2021/05/21 09:29:14;;;;;;;3.20;1.50;;;;;;;;;;6263321;28;20041;-67
2021/05/21 09:32:16;;;;;;;;;;;;;;;;;;6279504;28;20055;-67
2021/05/21 09:35:17;;;;;;;3.90;1.70;;;;;;;;;;6256128;28;20365;-68
2021/05/21 09:38:19;;;;;;;3.88;1.40;;;;;;;;;;6280628;28;20075;-70
2021/05/21 09:41:22;;;;;;;3.03;1.58;;;;;;;;;;6266074;28;20495;-69
2021/05/21 09:44:23;;;;;;;;;;;;;;;;;;6283778;28;20044;-68
2021/05/21 09:47:47;;;;;;;2.75;1.50;;;;;;;;;;6279666;28;20497;-68
2021/05/21 09:50:50;;;;;;;3.65;1.67;;;;;;;;;;6255861;28;20045;-68
2021/05/21 09:53:59;;;;;;;3.30;1.50;;;;;;;;;;6266294;28;20535;-68
2021/05/21 09:57:02;;;;;;;3.55;1.70;;;;;;;;;;6264017;28;20063;-72
2021/05/21 10:00:05;;;;;;;8.35;1.70;;;;;;;;;;6272089;28;20136;-70
2021/05/21 10:03:06;;;;;;;4.55;1.90;;;;;;;;;;6263669;28;20140;-68
2021/05/21 10:06:07;;;;;;;4.82;2.10;;;;;;;;;;6251493;28;20106;-68
2021/05/21 10:09:08;;;;;;;4.63;2.00;;;;;;;;;;6279199;28;20607;-68
2021/05/21 10:12:11;;;;;;;3.78;1.90;;;;;;;;;;6262323;28;20136;-68
2021/05/21 10:15:12;;;;;;;7.90;1.80;;;;;;;;;;6262631;28;20165;-69
2021/05/21 10:18:14;;;;;;;2.72;1.40;;;;;;;;;;6255018;28;20498;-69
2021/05/21 10:21:16;;;;;;;2.78;1.77;;;;;;;;;;6275986;28;20067;-68
2021/05/21 10:24:19;;;;;;;5.70;1.57;;;;;;;;;;6257913;28;20048;-67
2021/05/21 10:27:23;;;;;;;4.10;1.45;;;;;;;;;;6279462;28;20036;-68
2021/05/21 10:30:25;;;;;;;3.20;1.80;;;;;;;;;;6284137;28;20090;-68
2021/05/21 10:33:31;;;;;;;3.92;2.03;;;;;;;;;;6281765;28;20049;-68
2021/05/21 10:36:33;;;;;;;12.30;2.15;;;;;;;;;;6273543;28;20539;-69
2021/05/21 10:39:34;;;;;;;6.85;2.03;;;;;;;;;;6281535;28;20500;-68
2021/05/21 10:42:44;;;;;;;8.73;2.10;;;;;;;;;;6274989;28;20124;-68
2021/05/21 10:45:55;;;;;;;4.13;2.03;;;;;;;;;;6261539;28;20056;-69
2021/05/21 10:48:58;;;;;;;5.30;1.90;;;;;;;;;;6275902;28;20097;-68
2021/05/21 10:52:03;;;;;;;5.82;1.90;;;;;;;;;;6267624;28;20059;-68
2021/05/21 10:55:05;;;;;;;4.32;1.67;;;;;;;;;;6268928;28;20064;-69
2021/05/21 10:58:07;;;;;;;3.53;1.90;;;;;;;;;;6262264;28;20052;-67
2021/05/21 11:01:19;;;;;;;4.63;2.30;;;;;;;;;;6277532;28;20053;-68
2021/05/21 11:04:30;;;;;;;9.10;2.47;;;;;;;;;;6276275;28;20625;-70
2021/05/21 11:07:32;;;;;;;5.13;2.22;;;;;;;;;;6273942;28;20049;-69
2021/05/21 11:10:41;;;;;;;4.38;1.95;;;;;;;;;;6258619;28;20053;-69
2021/05/21 11:13:43;;;;;;;6.70;2.13;;;;;;;;;;6282588;28;20048;-71
2021/05/21 11:16:51;;;;;;;6.60;2.03;;;;;;;;;;6292682;28;20571;-68
2021/05/21 11:19:54;;;;;;;3.72;2.72;;;;;;;;;;6289986;28;20161;-69
2021/05/21 11:22:55;;;;;;;4.53;1.88;;;;;;;;;;6294514;28;20128;-70
2021/05/21 11:26:25;;;;;;;3.63;2.50;;;;;;;;;;6296397;28;20547;-69
2021/05/21 11:29:27;;;;;;;4.30;2.78;;;;;;;;;;6296775;28;20053;-68
2021/05/21 11:32:28;;;;;;;8.05;3.20;;;;;;;;;;6299656;28;20174;-72
2021/05/21 11:35:29;;;;;;;4.38;2.70;;;;;;;;;;6292472;28;20136;-67
2021/05/21 11:38:30;;;;;;;5.63;2.85;;;;;;;;;;6300990;28;20127;-69
2021/05/21 11:41:33;;;;;;;4.32;2.83;;;;;;;;;;6299809;28;20135;-69
2021/05/21 11:44:35;;;;;;;6.40;2.65;;;;;;;;;;6301255;28;20384;-69
2021/05/21 11:47:37;;;;;;;8.88;3.13;;;;;;;;;;6292002;28;20772;-68
2021/05/21 11:50:38;;;;;;;9.98;2.47;;;;;;;;;;6296564;28;20110;-69
2021/05/21 11:53:49;;;;;;;6.15;2.90;;;;;;;;;;6295630;28;20128;-68
2021/05/21 11:56:50;;;;;;;3.88;2.85;;;;;;;;;;6292605;28;20384;-68
2021/05/21 11:59:54;;;;;;;3.85;2.50;;;;;;;;;;6295240;28;20049;-68
2021/05/21 12:02:56;;;;;;;5.03;2.55;;;;;;;;;;6300425;28;20111;-68
2021/05/21 12:05:57;;;;;;;3.45;2.67;;;;;;;;;;6295077;28;20069;-69
2021/05/21 12:08:58;;;;;;;4.30;2.20;;;;;;;;;;6299541;28;20044;-70
2021/05/21 12:11:59;;;;;;;3.22;2.20;;;;;;;;;;6295744;28;20163;-69
2021/05/21 12:15:11;;;;;;;4.57;2.10;;;;;;;;;;6300640;28;20080;-68
2021/05/21 12:18:13;;;;;;;4.22;2.42;;;;;;;;;;6299148;28;20131;-67
2021/05/21 12:21:20;;;;;;;4.68;2.25;;;;;;;;;;6293725;28;20635;-69
2021/05/21 12:24:22;;;;;;;5.63;2.90;;;;;;;;;;6272584;28;20159;-69
2021/05/21 12:27:25;;;;;;;4.85;2.70;;;;;;;;;;6268017;28;20072;-69
2021/05/21 12:30:28;;;;;;;4.22;2.05;;;;;;;;;;6270514;28;20112;-70
2021/05/21 12:33:31;;;;;;;5.45;2.45;;;;;;;;;;6270218;28;20124;-69
2021/05/21 12:36:33;;;;;;;6.93;2.88;;;;;;;;;;6273689;28;20124;-68
2021/05/21 12:39:36;;;;;;;3.75;2.13;;;;;;;;;;6277862;28;20057;-68
2021/05/21 12:42:46;;;;;;;5.47;3.13;;;;;;;;;;6281743;28;20176;-69
2021/05/21 12:46:08;;;;;;;4.32;2.50;;;;;;;;;;6261839;28;20041;-70
2021/05/21 12:49:09;;;;;;;9.77;3.17;;;;;;;;;;6264696;28;20072;-68
2021/05/21 12:52:10;;;;;;;7.03;2.42;;;;;;;;;;6266201;28;20377;-69
2021/05/21 12:55:14;;;;;;;4.18;2.67;;;;;;;;;;6268494;28;21215;-69
2021/05/21 12:58:16;;;;;;;4.10;2.00;;;;;;;;;;6269562;28;20135;-69
2021/05/21 13:01:19;;;;;;;5.57;2.25;;;;;;;;;;6267223;28;20044;-66
2021/05/21 13:04:21;;;;;;;6.50;2.97;;;;;;;;;;6268601;28;20045;-70
2021/05/21 13:07:22;;;;;;;8.38;3.30;;;;;;;;;;6287621;28;20060;-67
2021/05/21 13:10:24;;;;;;;5.05;2.63;;;;;;;;;;6291981;28;20123;-68
2021/05/21 13:13:29;;;;;;;5.00;2.75;;;;;;;;;;6294376;28;20120;-69
2021/05/21 13:16:41;;;;;;;7.10;2.50;;;;;;;;;;6290624;28;20119;-69
2021/05/21 13:19:44;;;;;;;3.83;1.52;;;;;;;;;;6294546;28;20489;-68
2021/05/21 13:22:49;;;;;;;4.63;1.70;;;;;;;;;;6292899;28;20048;-70
2021/05/21 13:25:53;;;;;;;4.25;2.22;;;;;;;;;;6292083;28;20070;-69
2021/05/21 13:28:57;;;;;;;5.47;3.65;;;;;;;;;;6296212;28;20050;-68
2021/05/21 13:31:59;;;;;;;5.95;3.30;;;;;;;;;;6289331;28;20048;-68
2021/05/21 13:35:00;;;;;;;6.63;3.17;;;;;;;;;;6288952;28;20051;-69
2021/05/21 13:38:02;;;;;;;7.47;2.05;;;;;;;;;;6288914;28;20072;-67
2021/05/21 13:41:03;;;;;;;5.28;1.42;;;;;;;;;;6295453;28;20586;-68
2021/05/21 13:44:04;;;;;;;8.38;2.03;;;;;;;;;;6290839;28;20102;-68
2021/05/21 13:47:06;;;;;;;2.92;1.65;;;;;;;;;;6290670;28;20360;-69
2021/05/21 13:50:08;;;;;;;3.97;1.75;;;;;;;;;;6291401;28;20055;-68
2021/05/21 13:53:10;;;;;;;5.65;2.38;;;;;;;;;;6293823;28;20794;-69
2021/05/21 13:56:12;;;;;;;4.47;2.33;;;;;;;;;;6291606;28;20068;-70
2021/05/21 13:59:14;;;;;;;5.05;2.58;;;;;;;;;;6292405;28;20040;-71
2021/05/21 14:02:16;;;;;;;5.07;2.92;;;;;;;;;;6287440;28;20090;-70
2021/05/21 14:05:17;;;;;;;6.55;2.20;;;;;;;;;;6287887;28;20457;-70
2021/05/21 14:08:18;;;;;;;4.32;2.10;;;;;;;;;;6284966;28;20049;-67
2021/05/21 14:11:19;;;;;;;7.70;1.40;;;;;;;;;;6293286;28;20166;-67
2021/05/21 14:14:21;;;;;;;4.65;0.90;;;;;;;;;;6282148;28;20064;-71
2021/05/21 14:17:23;;;;;;;2.63;0.90;;;;;;;;;;6281939;28;20048;-68
2021/05/21 14:20:24;;;;;;;5.32;0.82;;;;;;;;;;6288251;28;20036;-69
2021/05/21 14:23:25;;;;;;;7.60;1.88;;;;;;;;;;6285762;28;20055;-69
2021/05/21 14:26:28;;;;;;;5.75;1.20;;;;;;;;;;6286991;28;20144;-68
2021/05/21 14:29:29;;;;;;;;;;;;;;;;;;6290071;28;20048;-68
2021/05/21 14:32:31;;;;;;;2.97;1.20;;;;;;;;;;6289805;28;20237;-71
2021/05/21 14:35:32;;;;;;;8.52;1.08;;;;;;;;;;6294106;28;20123;-69
2021/05/21 14:38:33;;;;;;;2.42;0.68;;;;;;;;;;6287894;28;20048;-70
2021/05/21 14:41:34;;;;;;;14.63;1.23;;;;;;;;;;6290346;28;20052;-71
2021/05/21 14:44:35;;;;;;;1.48;0.70;;;;;;;;;;6287055;28;20396;-69
2021/05/21 14:47:38;;;;;;;11.10;1.85;;;;;;;;;;6275292;28;20072;-69
2021/05/21 14:50:41;;;;;;;5.87;0.80;;;;;;;;;;6277816;28;20063;-70
2021/05/21 14:53:42;;;;;;;6.90;1.00;;;;;;;;;;6285421;28;20110;-70
2021/05/21 14:56:43;;;;;;;7.15;2.03;;;;;;;;;;6291593;28;20044;-67
2021/05/21 14:59:44;;;;;;;6.20;1.00;;;;;;;;;;6280850;28;20121;-71
2021/05/21 15:02:47;;;;;;;3.85;1.52;;;;;;;;;;6287972;28;20131;-67
2021/05/21 15:05:48;;;;;;;5.30;0.82;;;;;;;;;;6285855;28;20538;-68
2021/05/21 15:08:50;;;;;;;3.03;0.70;;;;;;;;;;6286776;28;20045;-67
2021/05/21 15:11:53;;;;;;;10.98;1.10;;;;;;;;;;6285823;28;20143;-68
2021/05/21 15:14:58;;;;;;;25.13;2.53;;;;;;;;;;6285539;28;20153;-68
2021/05/21 15:18:11;;;;;;;6.85;0.90;;;;;;;;;;6282809;28;20052;-67
2021/05/21 15:24:36;;;;;;;7.47;1.10;;;;;;;;;;6270505;28;20053;-68
2021/05/21 15:27:37;;;;;;;23.92;2.08;;;;;;;;;;6289612;28;20504;-68
2021/05/21 15:30:46;;;;;;;9.65;1.20;;;;;;;;;;6280897;28;20516;-68
2021/05/21 15:33:48;;;;;;;3.70;0.93;;;;;;;;;;6262477;28;20049;-69
2021/05/21 15:36:50;;;;;;;6.93;1.15;;;;;;;;;;6274858;28;20053;-69
2021/05/21 15:39:51;;;;;;;7.65;0.73;;;;;;;;;;6270438;28;20147;-67
2021/05/21 15:46:11;;;;;;;12.73;1.42;;;;;;;;;;6267350;28;20102;-68
2021/05/21 15:49:24;;;;;;;2.00;0.65;;;;;;;;;;6263519;28;20093;-68
2021/05/21 15:52:33;;;;;;;8.70;1.02;;;;;;;;;;6255125;28;20041;-68
2021/05/21 15:55:54;;;;;;;5.47;0.80;;;;;;;;;;6266143;28;20041;-68
2021/05/21 15:59:02;;;;;;;5.72;0.82;;;;;;;;;;6256594;28;20049;-67
2021/05/21 16:02:04;;;;;;;2.25;0.68;;;;;;;;;;6290274;28;20049;-68
2021/05/21 16:05:08;;;;;;;4.03;0.90;;;;;;;;;;6274463;28;20061;-68
2021/05/21 16:08:09;;;;;;;4.70;0.90;;;;;;;;;;6270399;28;20095;-68
2021/05/21 16:11:12;;;;;;;7.60;0.80;;;;;;;;;;6279537;28;20037;-68
2021/05/21 16:14:13;;;;;;;4.95;0.90;;;;;;;;;;6274112;28;20052;-68
2021/05/21 16:17:14;;;;;;;8.45;0.70;;;;;;;;;;6282315;28;20040;-68
2021/05/21 16:20:17;;;;;;;5.25;1.20;;;;;;;;;;6263780;28;20053;-68
2021/05/21 16:23:19;;;;;;;4.35;1.00;;;;;;;;;;6283828;28;20416;-67
2021/05/21 16:26:20;;;;;;;4.45;1.00;;;;;;;;;;6284370;28;20064;-68
2021/05/21 16:29:21;;;;;;;3.72;0.73;;;;;;;;;;6272807;28;21063;-68
2021/05/21 16:32:23;;;;;;;7.18;1.02;;;;;;;;;;6268903;28;20103;-68
2021/05/21 16:35:25;;;;;;;3.70;1.02;;;;;;;;;;6278029;28;20062;-69
2021/05/21 16:38:27;;;;;;;1.75;0.65;;;;;;;;;;6264731;28;20436;-69
2021/05/21 16:41:29;;;;;;;4.83;1.20;;;;;;;;;;6290523;28;20097;-70
2021/05/21 16:44:30;;;;;;;3.10;1.30;;;;;;;;;;6276677;28;20483;-67
2021/05/21 16:47:31;;;;;;;4.50;0.70;;;;;;;;;;6283720;28;20135;-70
2021/05/21 16:50:33;;;;;;;6.40;0.90;;;;;;;;;;6266844;28;20076;-67
2021/05/21 16:53:38;;;;;;;4.55;0.80;;;;;;;;;;6262152;28;20098;-67
2021/05/21 16:56:39;;;;;;;4.57;0.80;;;;;;;;;;6271205;28;20045;-68
2021/05/21 16:59:40;;;;;;;8.18;1.08;;;;;;;;;;6274036;28;20130;-68
2021/05/21 17:02:41;;;;;;;10.02;1.20;;;;;;;;;;6263054;28;20128;-68
2021/05/21 17:05:43;;;;;;;8.02;0.75;;;;;;;;;;6261165;28;20126;-68
2021/05/21 17:08:44;;;;;;;3.75;0.70;;;;;;;;;;6278185;28;20060;-68
2021/05/21 17:11:45;;;;;;;14.18;2.97;;;;;;;;;;6265069;28;20076;-68
2021/05/21 17:14:51;;;;;;;4.68;0.82;;;;;;;;;;6261428;28;20051;-68
2021/05/21 17:21:51;;;;;;;8.38;1.02;;;;;;;;;;6266747;28;20044;-67
2021/05/21 17:28:31;;;;;;;4.00;0.98;;;;;;;;;;6266011;28;20042;-67
2021/05/21 17:45:00;;;;;;;8.93;1.25;;;;;;;;;;6265289;28;20060;-67
2021/05/21 17:48:04;;;;;;;3.63;0.82;;;;;;;;;;6287375;28;20430;-67
2021/05/21 17:51:30;;;;;;;4.22;1.00;;;;;;;;;;6294790;28;20056;-66
2021/05/21 17:54:39;;;;;;;4.97;1.10;;;;;;;;;;6291780;28;20057;-67
2021/05/21 17:58:07;;;;;;;22.55;1.73;;;;;;;;;;6289167;28;20075;-67
2021/05/21 18:01:28;;;;;;;4.15;0.88;;;;;;;;;;6287513;28;20045;-66
2021/05/21 18:07:55;;;;;;;5.20;1.40;;;;;;;;;;6281481;28;20064;-66
2021/05/21 18:11:10;;;;;;;4.22;1.55;;;;;;;;;;6294779;28;20048;-67
2021/05/21 18:44:21;;;;;;;2.72;1.23;;;;;;;;;;6268187;28;20045;-64
2021/05/21 18:47:35;;;;;;;5.90;1.05;;;;;;;;;;6280258;28;20113;-67
2021/05/21 19:00:52;;;;;;;5.07;1.00;;;;;;;;;;6213720;28;20046;-69
2021/05/21 19:03:53;;;;;;;2.17;0.70;;;;;;;;;;6205926;28;20057;-69
2021/05/21 19:10:26;;;;;;;3.65;0.98;;;;;;;;;;6210389;28;20065;-68
2021/05/21 19:13:40;;;;;;;2.05;0.70;;;;;;;;;;6216572;28;20046;-68
2021/05/21 19:16:53;;;;;;;5.88;1.40;;;;;;;;;;6210478;28;20435;-67
2021/05/21 19:19:58;;;;;;;4.95;1.63;;;;;;;;;;6209295;28;20077;-67
2021/05/21 19:23:18;;;;;;;5.10;1.10;;;;;;;;;;6213006;28;20387;-68
2021/05/21 19:26:19;;;;;;;4.40;1.60;;;;;;;;;;6205491;28;20489;-69
2021/05/21 19:29:38;;;;;;;5.47;0.98;;;;;;;;;;6213867;28;20065;-67
2021/05/21 19:32:50;;;;;;;4.03;1.05;;;;;;;;;;6217462;28;20049;-67